sensor_id;sensor_type;location;lat;lon;timestamp;temperature;humidity
7496;DHT22;3789;47.064;15.482;2022-12-19T00:01:36;-1.90;99.90
7496;DHT22;3789;47.064;15.482;2022-12-19T00:04:06;-1.90;99.90
7496;DHT22;3789;47.064;15.482;2022-12-19T00:06:36;-1.90;99.90
7496;DHT22;3789;47.064;15.482;2022-12-19T00:09:11;-1.90;99.90
7496;DHT22;3789;47.064;15.482;2022-12-19T00:11:39;-1.80;99.90
7496;DHT22;3789;47.064;15.482;2022-12-19T00:14:09;-1.80;99.90
7496;DHT22;3789;47.064;15.482;2022-12-19T00:16:37;-1.80;99.90
7496;DHT22;3789;47.064;15.482;2022-12-19T00:19:05;-1.90;99.90
7496;DHT22;3789;47.064;15.482;2022-12-19T00:21:33;-1.80;99.90
7496;DHT22;3789;47.064;15.482;2022-12-19T00:24:05;-1.80;99.90
7496;DHT22;3789;47.064;15.482;2022-12-19T00:26:47;-1.80;99.90
7496;DHT22;3789;47.064;15.482;2022-12-19T00:29:15;-1.90;99.90
7496;DHT22;3789;47.064;15.482;2022-12-19T00:31:43;-1.90;99.90
7496;DHT22;3789;47.064;15.482;2022-12-19T00:34:10;-1.80;99.90
7496;DHT22;3789;47.064;15.482;2022-12-19T00:36:37;-1.70;99.90
7496;DHT22;3789;47.064;15.482;2022-12-19T00:39:05;-1.70;99.90
7496;DHT22;3789;47.064;15.482;2022-12-19T00:41:36;-1.70;99.90
7496;DHT22;3789;47.064;15.482;2022-12-19T00:44:11;-1.60;99.90
7496;DHT22;3789;47.064;15.482;2022-12-19T00:46:39;-1.60;99.90
7496;DHT22;3789;47.064;15.482;2022-12-19T00:49:06;-1.60;99.90
7496;DHT22;3789;47.064;15.482;2022-12-19T00:51:35;-1.60;99.90
7496;DHT22;3789;47.064;15.482;2022-12-19T00:54:03;-1.80;99.90
7496;DHT22;3789;47.064;15.482;2022-12-19T00:56:34;-1.80;99.90
7496;DHT22;3789;47.064;15.482;2022-12-19T00:59:04;-1.80;99.90
7496;DHT22;3789;47.064;15.482;2022-12-19T01:01:36;-1.80;99.90
7496;DHT22;3789;47.064;15.482;2022-12-19T01:04:06;-1.80;99.90
7496;DHT22;3789;47.064;15.482;2022-12-19T01:07:03;-1.90;99.90
7496;DHT22;3789;47.064;15.482;2022-12-19T01:09:34;-1.90;99.90
7496;DHT22;3789;47.064;15.482;2022-12-19T01:12:03;-1.90;99.90
7496;DHT22;3789;47.064;15.482;2022-12-19T01:14:54;-1.90;99.90
7496;DHT22;3789;47.064;15.482;2022-12-19T01:17:31;-1.80;99.90
7496;DHT22;3789;47.064;15.482;2022-12-19T01:20:15;-1.80;99.90
7496;DHT22;3789;47.064;15.482;2022-12-19T01:22:47;-1.80;99.90
7496;DHT22;3789;47.064;15.482;2022-12-19T01:25:14;-1.70;99.90
7496;DHT22;3789;47.064;15.482;2022-12-19T01:27:41;-1.70;99.90
7496;DHT22;3789;47.064;15.482;2022-12-19T01:30:09;-1.70;99.90
7496;DHT22;3789;47.064;15.482;2022-12-19T01:32:37;-1.70;99.90
7496;DHT22;3789;47.064;15.482;2022-12-19T01:35:04;-1.70;99.90
7496;DHT22;3789;47.064;15.482;2022-12-19T01:37:36;-1.70;99.90
7496;DHT22;3789;47.064;15.482;2022-12-19T01:40:04;-1.70;99.90
7496;DHT22;3789;47.064;15.482;2022-12-19T01:42:35;-1.70;99.90
7496;DHT22;3789;47.064;15.482;2022-12-19T01:47:34;-4.20;99.90
7496;DHT22;3789;47.064;15.482;2022-12-19T01:50:04;-5.30;99.90
7496;DHT22;3789;47.064;15.482;2022-12-19T01:52:32;-6.20;99.90
7496;DHT22;3789;47.064;15.482;2022-12-19T01:54:59;-6.80;99.90
7496;DHT22;3789;47.064;15.482;2022-12-19T01:57:27;-7.20;99.90
7496;DHT22;3789;47.064;15.482;2022-12-19T01:59:57;-7.50;99.90
7496;DHT22;3789;47.064;15.482;2022-12-19T02:02:32;-7.70;99.90
7496;DHT22;3789;47.064;15.482;2022-12-19T02:05:00;-7.90;99.90
7496;DHT22;3789;47.064;15.482;2022-12-19T02:07:27;-8.00;99.90
7496;DHT22;3789;47.064;15.482;2022-12-19T02:09:55;-8.10;99.90
7496;DHT22;3789;47.064;15.482;2022-12-19T02:12:24;-8.20;99.90
7496;DHT22;3789;47.064;15.482;2022-12-19T02:14:52;-8.30;99.90
7496;DHT22;3789;47.064;15.482;2022-12-19T02:35:08;-8.70;99.90
7496;DHT22;3789;47.064;15.482;2022-12-19T02:37:53;-8.80;99.90
7496;DHT22;3789;47.064;15.482;2022-12-19T02:40:56;-8.90;99.90
7496;DHT22;3789;47.064;15.482;2022-12-19T02:43:37;-8.90;99.90
7496;DHT22;3789;47.064;15.482;2022-12-19T02:46:06;-8.90;99.90
7496;DHT22;3789;47.064;15.482;2022-12-19T02:48:37;-8.90;99.90
7496;DHT22;3789;47.064;15.482;2022-12-19T02:51:05;-8.80;99.90
7496;DHT22;3789;47.064;15.482;2022-12-19T02:53:32;-6.70;99.90
7496;DHT22;3789;47.064;15.482;2022-12-19T03:02:07;-7.90;99.90
7496;DHT22;3789;47.064;15.482;2022-12-19T03:05:02;-8.20;99.90
7496;DHT22;3789;47.064;15.482;2022-12-19T03:13:22;-8.70;99.90
7496;DHT22;3789;47.064;15.482;2022-12-19T03:15:52;-8.70;99.90
7496;DHT22;3789;47.064;15.482;2022-12-19T03:18:19;-8.80;99.90
7496;DHT22;3789;47.064;15.482;2022-12-19T03:20:51;-8.80;99.90
7496;DHT22;3789;47.064;15.482;2022-12-19T03:23:20;-8.80;99.90
7496;DHT22;3789;47.064;15.482;2022-12-19T03:25:49;-8.80;99.90
7496;DHT22;3789;47.064;15.482;2022-12-19T03:28:26;-8.90;99.90
7496;DHT22;3789;47.064;15.482;2022-12-19T03:30:57;-8.90;99.90
7496;DHT22;3789;47.064;15.482;2022-12-19T03:33:30;-9.00;99.90
7496;DHT22;3789;47.064;15.482;2022-12-19T03:36:08;-9.00;99.90
7496;DHT22;3789;47.064;15.482;2022-12-19T03:38:41;-9.00;99.90
7496;DHT22;3789;47.064;15.482;2022-12-19T03:41:30;-9.10;99.90
7496;DHT22;3789;47.064;15.482;2022-12-19T03:44:16;-9.10;99.90
7496;DHT22;3789;47.064;15.482;2022-12-19T03:46:50;-9.20;99.90
7496;DHT22;3789;47.064;15.482;2022-12-19T03:49:19;-9.20;99.90
7496;DHT22;3789;47.064;15.482;2022-12-19T03:51:54;-9.30;99.90
7496;DHT22;3789;47.064;15.482;2022-12-19T03:54:32;-9.30;99.90
7496;DHT22;3789;47.064;15.482;2022-12-19T03:59:55;-9.20;99.90
7496;DHT22;3789;47.064;15.482;2022-12-19T04:02:37;-9.20;99.90
7496;DHT22;3789;47.064;15.482;2022-12-19T04:05:07;-8.90;99.90
7496;DHT22;3789;47.064;15.482;2022-12-19T04:07:36;-8.60;99.90
7496;DHT22;3789;47.064;15.482;2022-12-19T04:10:06;-8.30;99.90
7496;DHT22;3789;47.064;15.482;2022-12-19T04:12:40;-8.10;99.90
7496;DHT22;3789;47.064;15.482;2022-12-19T04:15:09;-7.90;99.90
7496;DHT22;3789;47.064;15.482;2022-12-19T04:17:50;-7.10;99.90
7496;DHT22;3789;47.064;15.482;2022-12-19T04:20:20;-5.70;99.90
7496;DHT22;3789;47.064;15.482;2022-12-19T04:23:10;-6.00;99.90
7496;DHT22;3789;47.064;15.482;2022-12-19T04:25:42;-6.50;99.90
7496;DHT22;3789;47.064;15.482;2022-12-19T04:28:21;-6.70;99.90
7496;DHT22;3789;47.064;15.482;2022-12-19T04:30:51;-6.60;99.90
7496;DHT22;3789;47.064;15.482;2022-12-19T04:33:19;-6.50;99.90
7496;DHT22;3789;47.064;15.482;2022-12-19T04:35:46;-6.20;99.90
7496;DHT22;3789;47.064;15.482;2022-12-19T04:38:14;-6.00;99.90
7496;DHT22;3789;47.064;15.482;2022-12-19T04:40:41;-5.70;99.90
7496;DHT22;3789;47.064;15.482;2022-12-19T04:43:08;-5.50;99.90
7496;DHT22;3789;47.064;15.482;2022-12-19T04:45:35;-5.30;99.90
7496;DHT22;3789;47.064;15.482;2022-12-19T04:48:03;-5.10;99.90
7496;DHT22;3789;47.064;15.482;2022-12-19T04:50:32;-4.90;99.90
7496;DHT22;3789;47.064;15.482;2022-12-19T04:53:00;-4.70;99.90
7496;DHT22;3789;47.064;15.482;2022-12-19T04:55:27;-4.50;99.90
7496;DHT22;3789;47.064;15.482;2022-12-19T04:58:00;-4.30;99.90
7496;DHT22;3789;47.064;15.482;2022-12-19T05:00:30;-4.00;99.90
7496;DHT22;3789;47.064;15.482;2022-12-19T05:02:57;-3.90;99.90
7496;DHT22;3789;47.064;15.482;2022-12-19T05:05:25;-3.70;99.90
7496;DHT22;3789;47.064;15.482;2022-12-19T05:07:52;-3.60;99.90
7496;DHT22;3789;47.064;15.482;2022-12-19T05:10:19;-3.40;99.90
7496;DHT22;3789;47.064;15.482;2022-12-19T05:12:46;-3.20;99.90
7496;DHT22;3789;47.064;15.482;2022-12-19T05:15:13;-3.10;99.90
7496;DHT22;3789;47.064;15.482;2022-12-19T05:17:40;-3.00;99.90
7496;DHT22;3789;47.064;15.482;2022-12-19T05:20:08;-3.00;99.90
7496;DHT22;3789;47.064;15.482;2022-12-19T05:22:35;-3.00;99.90
7496;DHT22;3789;47.064;15.482;2022-12-19T05:25:02;-3.00;99.90
7496;DHT22;3789;47.064;15.482;2022-12-19T05:27:29;-3.00;99.90
7496;DHT22;3789;47.064;15.482;2022-12-19T05:29:56;-3.00;99.90
7496;DHT22;3789;47.064;15.482;2022-12-19T05:32:23;-3.00;99.90
7496;DHT22;3789;47.064;15.482;2022-12-19T05:34:50;-2.90;99.90
7496;DHT22;3789;47.064;15.482;2022-12-19T05:37:18;-2.80;99.90
7496;DHT22;3789;47.064;15.482;2022-12-19T05:39:45;-2.80;99.90
7496;DHT22;3789;47.064;15.482;2022-12-19T05:42:12;-2.80;99.90
7496;DHT22;3789;47.064;15.482;2022-12-19T05:44:39;-2.80;99.90
7496;DHT22;3789;47.064;15.482;2022-12-19T05:47:07;-2.70;99.90
7496;DHT22;3789;47.064;15.482;2022-12-19T05:49:34;-2.60;99.90
7496;DHT22;3789;47.064;15.482;2022-12-19T05:52:01;-2.60;99.90
7496;DHT22;3789;47.064;15.482;2022-12-19T05:54:28;-2.50;99.90
7496;DHT22;3789;47.064;15.482;2022-12-19T05:56:55;-2.60;99.90
7496;DHT22;3789;47.064;15.482;2022-12-19T05:59:23;-2.50;99.90
7496;DHT22;3789;47.064;15.482;2022-12-19T06:01:50;-2.90;99.90
7496;DHT22;3789;47.064;15.482;2022-12-19T06:04:17;-4.10;99.90
7496;DHT22;3789;47.064;15.482;2022-12-19T06:06:44;-5.30;99.90
7496;DHT22;3789;47.064;15.482;2022-12-19T06:09:11;-6.20;99.90
7496;DHT22;3789;47.064;15.482;2022-12-19T06:11:38;-6.80;99.90
7496;DHT22;3789;47.064;15.482;2022-12-19T06:14:05;-7.30;99.90
7496;DHT22;3789;47.064;15.482;2022-12-19T06:16:32;-7.70;99.90
7496;DHT22;3789;47.064;15.482;2022-12-19T06:18:59;-8.00;99.90
7496;DHT22;3789;47.064;15.482;2022-12-19T06:21:26;-8.20;99.90
7496;DHT22;3789;47.064;15.482;2022-12-19T06:23:54;-8.40;99.90
7496;DHT22;3789;47.064;15.482;2022-12-19T06:26:21;-8.50;99.90
7496;DHT22;3789;47.064;15.482;2022-12-19T06:28:50;-8.70;99.90
7496;DHT22;3789;47.064;15.482;2022-12-19T06:31:19;-8.80;99.90
7496;DHT22;3789;47.064;15.482;2022-12-19T06:33:47;-8.80;99.90
7496;DHT22;3789;47.064;15.482;2022-12-19T06:36:24;-8.90;99.90
7496;DHT22;3789;47.064;15.482;2022-12-19T06:38:53;-9.00;99.90
7496;DHT22;3789;47.064;15.482;2022-12-19T06:41:20;-9.00;99.90
7496;DHT22;3789;47.064;15.482;2022-12-19T06:44:08;-9.10;99.90
7496;DHT22;3789;47.064;15.482;2022-12-19T06:46:37;-9.10;99.90
7496;DHT22;3789;47.064;15.482;2022-12-19T06:49:04;-9.10;99.90
7496;DHT22;3789;47.064;15.482;2022-12-19T06:51:31;-9.20;99.90
7496;DHT22;3789;47.064;15.482;2022-12-19T06:53:58;-9.10;99.90
7496;DHT22;3789;47.064;15.482;2022-12-19T06:56:25;-9.10;99.90
7496;DHT22;3789;47.064;15.482;2022-12-19T06:58:52;-9.20;99.90
7496;DHT22;3789;47.064;15.482;2022-12-19T07:03:51;-9.20;99.90
7496;DHT22;3789;47.064;15.482;2022-12-19T07:06:18;-9.30;99.90
7496;DHT22;3789;47.064;15.482;2022-12-19T07:08:45;-9.30;99.90
7496;DHT22;3789;47.064;15.482;2022-12-19T07:11:13;-9.30;99.90
7496;DHT22;3789;47.064;15.482;2022-12-19T07:13:40;-9.40;99.90
7496;DHT22;3789;47.064;15.482;2022-12-19T07:16:07;-9.30;99.90
7496;DHT22;3789;47.064;15.482;2022-12-19T07:18:37;-9.30;99.90
7496;DHT22;3789;47.064;15.482;2022-12-19T07:21:05;-9.30;99.90
7496;DHT22;3789;47.064;15.482;2022-12-19T07:23:34;-9.40;99.90
7496;DHT22;3789;47.064;15.482;2022-12-19T07:26:02;-9.40;99.90
7496;DHT22;3789;47.064;15.482;2022-12-19T07:28:35;-9.20;99.90
7496;DHT22;3789;47.064;15.482;2022-12-19T07:31:27;-8.30;99.90
7496;DHT22;3789;47.064;15.482;2022-12-19T07:33:54;-7.80;99.90
7496;DHT22;3789;47.064;15.482;2022-12-19T07:36:21;-7.40;99.90
7496;DHT22;3789;47.064;15.482;2022-12-19T07:38:48;-7.10;99.90
7496;DHT22;3789;47.064;15.482;2022-12-19T07:41:16;-6.80;99.90
7496;DHT22;3789;47.064;15.482;2022-12-19T07:43:43;-6.60;99.90
7496;DHT22;3789;47.064;15.482;2022-12-19T07:46:11;-6.30;99.90
7496;DHT22;3789;47.064;15.482;2022-12-19T07:48:38;-6.00;99.90
7496;DHT22;3789;47.064;15.482;2022-12-19T07:51:05;-5.70;99.90
7496;DHT22;3789;47.064;15.482;2022-12-19T07:53:32;-5.40;99.90
7496;DHT22;3789;47.064;15.482;2022-12-19T07:56:00;-5.20;99.90
7496;DHT22;3789;47.064;15.482;2022-12-19T07:58:27;-4.90;99.90
7496;DHT22;3789;47.064;15.482;2022-12-19T08:00:57;-4.60;99.90
7496;DHT22;3789;47.064;15.482;2022-12-19T08:03:26;-4.30;99.90
7496;DHT22;3789;47.064;15.482;2022-12-19T08:06:01;-4.00;99.90
7496;DHT22;3789;47.064;15.482;2022-12-19T08:08:28;-3.80;99.90
7496;DHT22;3789;47.064;15.482;2022-12-19T08:11:14;-3.70;99.90
7496;DHT22;3789;47.064;15.482;2022-12-19T08:13:48;-3.50;99.90
7496;DHT22;3789;47.064;15.482;2022-12-19T08:16:15;-3.50;99.90
7496;DHT22;3789;47.064;15.482;2022-12-19T08:18:42;-3.40;99.90
7496;DHT22;3789;47.064;15.482;2022-12-19T08:21:10;-3.30;99.90
7496;DHT22;3789;47.064;15.482;2022-12-19T08:23:40;-3.20;99.90
7496;DHT22;3789;47.064;15.482;2022-12-19T08:26:11;-3.10;99.90
7496;DHT22;3789;47.064;15.482;2022-12-19T08:28:56;-2.90;99.90
7496;DHT22;3789;47.064;15.482;2022-12-19T08:31:26;-2.70;99.90
7496;DHT22;3789;47.064;15.482;2022-12-19T08:33:55;-2.60;99.90
7496;DHT22;3789;47.064;15.482;2022-12-19T08:36:23;-2.50;99.90
7496;DHT22;3789;47.064;15.482;2022-12-19T08:38:51;-2.40;99.90
7496;DHT22;3789;47.064;15.482;2022-12-19T08:41:18;-2.30;99.90
7496;DHT22;3789;47.064;15.482;2022-12-19T08:43:49;-2.20;99.90
7496;DHT22;3789;47.064;15.482;2022-12-19T08:46:17;-2.10;99.90
7496;DHT22;3789;47.064;15.482;2022-12-19T08:48:45;-2.00;99.90
7496;DHT22;3789;47.064;15.482;2022-12-19T08:51:13;-2.00;99.90
7496;DHT22;3789;47.064;15.482;2022-12-19T08:53:42;-1.90;99.90
7496;DHT22;3789;47.064;15.482;2022-12-19T08:56:12;-1.80;99.90
7496;DHT22;3789;47.064;15.482;2022-12-19T08:58:40;-1.70;99.90
7496;DHT22;3789;47.064;15.482;2022-12-19T09:01:14;-1.60;99.90
7496;DHT22;3789;47.064;15.482;2022-12-19T09:03:42;-1.60;99.90
7496;DHT22;3789;47.064;15.482;2022-12-19T09:06:29;-1.50;99.90
7496;DHT22;3789;47.064;15.482;2022-12-19T09:08:57;-1.50;99.90
7496;DHT22;3789;47.064;15.482;2022-12-19T09:11:26;-1.40;99.90
7496;DHT22;3789;47.064;15.482;2022-12-19T09:13:55;-1.40;99.90
7496;DHT22;3789;47.064;15.482;2022-12-19T09:16:25;-1.30;99.90
7496;DHT22;3789;47.064;15.482;2022-12-19T09:18:54;-1.30;99.90
7496;DHT22;3789;47.064;15.482;2022-12-19T09:21:23;-1.20;99.90
7496;DHT22;3789;47.064;15.482;2022-12-19T09:23:55;-1.20;99.90
7496;DHT22;3789;47.064;15.482;2022-12-19T09:26:33;-1.20;99.90
7496;DHT22;3789;47.064;15.482;2022-12-19T09:29:00;-1.10;99.90
7496;DHT22;3789;47.064;15.482;2022-12-19T09:31:36;-1.10;99.90
7496;DHT22;3789;47.064;15.482;2022-12-19T09:34:03;-1.10;99.90
7496;DHT22;3789;47.064;15.482;2022-12-19T09:36:30;-1.00;99.90
7496;DHT22;3789;47.064;15.482;2022-12-19T09:38:58;-1.00;99.90
7496;DHT22;3789;47.064;15.482;2022-12-19T09:45:25;-1.00;99.90
7496;DHT22;3789;47.064;15.482;2022-12-19T09:47:33;-1.10;99.90
7496;DHT22;3789;47.064;15.482;2022-12-19T09:50:28;-1.10;99.90
7496;DHT22;3789;47.064;15.482;2022-12-19T09:53:02;-1.00;99.90
7496;DHT22;3789;47.064;15.482;2022-12-19T09:55:36;-1.00;99.90
7496;DHT22;3789;47.064;15.482;2022-12-19T10:01:01;-1.00;99.90
7496;DHT22;3789;47.064;15.482;2022-12-19T10:03:35;-1.00;99.90
7496;DHT22;3789;47.064;15.482;2022-12-19T10:06:20;-1.00;99.90
7496;DHT22;3789;47.064;15.482;2022-12-19T10:09:13;-0.90;99.90
7496;DHT22;3789;47.064;15.482;2022-12-19T10:12:32;-0.90;99.90
7496;DHT22;3789;47.064;15.482;2022-12-19T10:18:51;-0.90;99.90
7496;DHT22;3789;47.064;15.482;2022-12-19T10:25:03;-0.80;99.90
7496;DHT22;3789;47.064;15.482;2022-12-19T10:28:08;-0.70;99.90
7496;DHT22;3789;47.064;15.482;2022-12-19T10:30:47;-0.70;99.90
7496;DHT22;3789;47.064;15.482;2022-12-19T10:33:34;-0.70;99.90
7496;DHT22;3789;47.064;15.482;2022-12-19T10:36:08;-0.70;99.90
7496;DHT22;3789;47.064;15.482;2022-12-19T10:38:47;-0.60;99.90
7496;DHT22;3789;47.064;15.482;2022-12-19T10:41:29;-0.60;99.90
7496;DHT22;3789;47.064;15.482;2022-12-19T10:44:04;-0.60;99.90
7496;DHT22;3789;47.064;15.482;2022-12-19T10:46:48;-0.70;99.90
7496;DHT22;3789;47.064;15.482;2022-12-19T10:52:06;-0.60;99.90
7496;DHT22;3789;47.064;15.482;2022-12-19T11:00:15;-0.60;99.90
7496;DHT22;3789;47.064;15.482;2022-12-19T11:02:47;-0.60;99.90
7496;DHT22;3789;47.064;15.482;2022-12-19T11:05:29;-0.50;99.90
7496;DHT22;3789;47.064;15.482;2022-12-19T11:08:07;-0.50;99.90
7496;DHT22;3789;47.064;15.482;2022-12-19T11:10:42;-0.50;99.90
7496;DHT22;3789;47.064;15.482;2022-12-19T11:13:39;-0.50;99.90
7496;DHT22;3789;47.064;15.482;2022-12-19T11:16:34;-0.70;99.90
7496;DHT22;3789;47.064;15.482;2022-12-19T11:22:30;-4.10;99.90
7496;DHT22;3789;47.064;15.482;2022-12-19T11:25:20;-5.20;99.90
7496;DHT22;3789;47.064;15.482;2022-12-19T11:28:21;-5.90;99.90
7496;DHT22;3789;47.064;15.482;2022-12-19T11:34:05;-6.80;99.90
7496;DHT22;3789;47.064;15.482;2022-12-19T11:39:43;-7.10;99.90
7496;DHT22;3789;47.064;15.482;2022-12-19T11:42:18;-7.30;99.90
7496;DHT22;3789;47.064;15.482;2022-12-19T11:45:02;-7.50;99.90
7496;DHT22;3789;47.064;15.482;2022-12-19T11:47:41;-7.60;99.90
7496;DHT22;3789;47.064;15.482;2022-12-19T11:50:16;-7.70;99.90
7496;DHT22;3789;47.064;15.482;2022-12-19T11:58:13;-7.80;99.90
7496;DHT22;3789;47.064;15.482;2022-12-19T12:01:34;-7.90;99.90
7496;DHT22;3789;47.064;15.482;2022-12-19T12:03:42;-8.00;99.90
7496;DHT22;3789;47.064;15.482;2022-12-19T12:07:11;-8.00;99.90
7496;DHT22;3789;47.064;15.482;2022-12-19T12:10:09;-8.00;99.90
7496;DHT22;3789;47.064;15.482;2022-12-19T12:16:15;-8.00;99.90
7496;DHT22;3789;47.064;15.482;2022-12-19T12:19:14;-8.00;99.90
7496;DHT22;3789;47.064;15.482;2022-12-19T12:22:28;-8.10;99.90
7496;DHT22;3789;47.064;15.482;2022-12-19T12:32:25;-6.50;99.90
7496;DHT22;3789;47.064;15.482;2022-12-19T12:35:39;-5.80;99.90
7496;DHT22;3789;47.064;15.482;2022-12-19T12:46:32;-4.20;99.90
7496;DHT22;3789;47.064;15.482;2022-12-19T12:51:49;-3.70;99.90
7496;DHT22;3789;47.064;15.482;2022-12-19T12:54:17;-3.50;99.90
7496;DHT22;3789;47.064;15.482;2022-12-19T12:56:45;-3.30;99.90
7496;DHT22;3789;47.064;15.482;2022-12-19T13:01:51;-2.80;99.90
7496;DHT22;3789;47.064;15.482;2022-12-19T13:04:34;-2.70;99.90
7496;DHT22;3789;47.064;15.482;2022-12-19T13:07:14;-2.60;99.90
7496;DHT22;3789;47.064;15.482;2022-12-19T13:09:51;-2.50;99.90
7496;DHT22;3789;47.064;15.482;2022-12-19T13:12:27;-2.40;99.90
7496;DHT22;3789;47.064;15.482;2022-12-19T13:15:35;-2.30;99.90
7496;DHT22;3789;47.064;15.482;2022-12-19T13:18:30;-2.20;99.90
7496;DHT22;3789;47.064;15.482;2022-12-19T13:21:00;-2.10;99.90
7496;DHT22;3789;47.064;15.482;2022-12-19T13:25:55;-1.90;99.90
7496;DHT22;3789;47.064;15.482;2022-12-19T13:34:13;-1.70;99.90
7496;DHT22;3789;47.064;15.482;2022-12-19T13:42:37;-1.60;99.90
7496;DHT22;3789;47.064;15.482;2022-12-19T13:45:39;-1.50;99.90
7496;DHT22;3789;47.064;15.482;2022-12-19T13:48:14;-1.50;99.90
7496;DHT22;3789;47.064;15.482;2022-12-19T13:50:44;-1.40;99.90
7496;DHT22;3789;47.064;15.482;2022-12-19T13:53:16;-1.30;99.90
7496;DHT22;3789;47.064;15.482;2022-12-19T13:55:44;-1.30;99.90
7496;DHT22;3789;47.064;15.482;2022-12-19T13:58:32;-1.30;99.90
7496;DHT22;3789;47.064;15.482;2022-12-19T14:01:12;-1.30;99.90
7496;DHT22;3789;47.064;15.482;2022-12-19T14:03:49;-1.30;99.90
7496;DHT22;3789;47.064;15.482;2022-12-19T14:06:27;-1.30;99.90
7496;DHT22;3789;47.064;15.482;2022-12-19T14:09:03;-1.20;99.90
7496;DHT22;3789;47.064;15.482;2022-12-19T14:11:51;-1.20;99.90
7496;DHT22;3789;47.064;15.482;2022-12-19T14:14:50;-1.10;99.90
7496;DHT22;3789;47.064;15.482;2022-12-19T14:17:40;-1.10;99.90
7496;DHT22;3789;47.064;15.482;2022-12-19T14:20:26;-1.10;99.90
7496;DHT22;3789;47.064;15.482;2022-12-19T14:23:14;-1.00;99.90
7496;DHT22;3789;47.064;15.482;2022-12-19T14:25:53;-1.00;99.90
7496;DHT22;3789;47.064;15.482;2022-12-19T14:29:31;-1.00;99.90
7496;DHT22;3789;47.064;15.482;2022-12-19T14:31:40;-0.90;99.90
7496;DHT22;3789;47.064;15.482;2022-12-19T14:34:30;-1.00;99.90
7496;DHT22;3789;47.064;15.482;2022-12-19T14:37:39;-0.90;99.90
7496;DHT22;3789;47.064;15.482;2022-12-19T14:40:32;-0.90;99.90
7496;DHT22;3789;47.064;15.482;2022-12-19T14:43:25;-0.90;99.90
7496;DHT22;3789;47.064;15.482;2022-12-19T14:46:27;-0.90;99.90
7496;DHT22;3789;47.064;15.482;2022-12-19T14:49:29;-0.90;99.90
7496;DHT22;3789;47.064;15.482;2022-12-19T14:52:40;-0.90;99.90
7496;DHT22;3789;47.064;15.482;2022-12-19T14:58:34;-0.90;99.90
7496;DHT22;3789;47.064;15.482;2022-12-19T15:01:32;-0.90;99.90
7496;DHT22;3789;47.064;15.482;2022-12-19T15:04:05;-0.90;99.90
7496;DHT22;3789;47.064;15.482;2022-12-19T15:07:12;-0.90;99.90
7496;DHT22;3789;47.064;15.482;2022-12-19T15:09:54;-0.80;99.90
7496;DHT22;3789;47.064;15.482;2022-12-19T15:12:57;-0.90;99.90
7496;DHT22;3789;47.064;15.482;2022-12-19T15:16:20;-0.90;99.90
7496;DHT22;3789;47.064;15.482;2022-12-19T15:18:52;-0.80;99.90
7496;DHT22;3789;47.064;15.482;2022-12-19T15:21:28;-0.80;99.90
7496;DHT22;3789;47.064;15.482;2022-12-19T15:23:56;-0.80;99.90
7496;DHT22;3789;47.064;15.482;2022-12-19T15:26:34;-0.70;99.90
7496;DHT22;3789;47.064;15.482;2022-12-19T15:29:10;-0.70;99.90
7496;DHT22;3789;47.064;15.482;2022-12-19T15:31:48;-0.70;99.90
7496;DHT22;3789;47.064;15.482;2022-12-19T15:34:26;-0.70;99.90
7496;DHT22;3789;47.064;15.482;2022-12-19T15:37:04;-1.20;99.90
7496;DHT22;3789;47.064;15.482;2022-12-19T15:39:33;-2.70;99.90
7496;DHT22;3789;47.064;15.482;2022-12-19T15:42:14;-3.80;99.90
7496;DHT22;3789;47.064;15.482;2022-12-19T15:45:15;-4.50;99.90
7496;DHT22;3789;47.064;15.482;2022-12-19T15:48:03;-5.10;99.90
7496;DHT22;3789;47.064;15.482;2022-12-19T15:50:31;-5.40;99.90
7496;DHT22;3789;47.064;15.482;2022-12-19T15:53:27;-5.50;99.90
7496;DHT22;3789;47.064;15.482;2022-12-19T15:56:26;-5.60;99.90
7496;DHT22;3789;47.064;15.482;2022-12-19T15:59:05;-5.60;99.90
7496;DHT22;3789;47.064;15.482;2022-12-19T16:01:41;-5.20;99.90
7496;DHT22;3789;47.064;15.482;2022-12-19T16:04:12;-4.70;99.90
7496;DHT22;3789;47.064;15.482;2022-12-19T16:06:41;-4.30;99.90
7496;DHT22;3789;47.064;15.482;2022-12-19T16:09:25;-3.90;99.90
7496;DHT22;3789;47.064;15.482;2022-12-19T16:12:00;-3.60;99.90
7496;DHT22;3789;47.064;15.482;2022-12-19T16:14:30;-3.30;99.90
7496;DHT22;3789;47.064;15.482;2022-12-19T16:17:00;-3.00;99.90
7496;DHT22;3789;47.064;15.482;2022-12-19T16:19:30;-2.80;99.90
7496;DHT22;3789;47.064;15.482;2022-12-19T16:21:59;-2.60;99.90
7496;DHT22;3789;47.064;15.482;2022-12-19T16:24:29;-2.40;99.90
7496;DHT22;3789;47.064;15.482;2022-12-19T16:27:05;-2.20;99.90
7496;DHT22;3789;47.064;15.482;2022-12-19T16:29:34;-3.20;99.90
7496;DHT22;3789;47.064;15.482;2022-12-19T16:32:12;-4.60;99.90
7496;DHT22;3789;47.064;15.482;2022-12-19T16:34:40;-5.70;99.90
7496;DHT22;3789;47.064;15.482;2022-12-19T16:37:10;-6.40;99.90
7496;DHT22;3789;47.064;15.482;2022-12-19T16:39:47;-6.80;99.90
7496;DHT22;3789;47.064;15.482;2022-12-19T16:42:20;-7.20;99.90
7496;DHT22;3789;47.064;15.482;2022-12-19T16:44:48;-7.50;99.90
7496;DHT22;3789;47.064;15.482;2022-12-19T16:47:18;-7.70;99.90
7496;DHT22;3789;47.064;15.482;2022-12-19T16:49:48;-7.90;99.90
7496;DHT22;3789;47.064;15.482;2022-12-19T16:52:24;-8.00;99.90
7496;DHT22;3789;47.064;15.482;2022-12-19T16:54:52;-8.00;99.90
7496;DHT22;3789;47.064;15.482;2022-12-19T16:57:23;-8.10;99.90
7496;DHT22;3789;47.064;15.482;2022-12-19T16:59:51;-8.20;99.90
7496;DHT22;3789;47.064;15.482;2022-12-19T17:03:01;-8.30;99.90
7496;DHT22;3789;47.064;15.482;2022-12-19T17:05:44;-8.30;99.90
7496;DHT22;3789;47.064;15.482;2022-12-19T17:08:20;-8.40;99.90
7496;DHT22;3789;47.064;15.482;2022-12-19T17:10:48;-8.50;99.90
7496;DHT22;3789;47.064;15.482;2022-12-19T17:13:16;-8.50;99.90
7496;DHT22;3789;47.064;15.482;2022-12-19T17:16:04;-8.60;99.90
7496;DHT22;3789;47.064;15.482;2022-12-19T17:18:38;-8.60;99.90
7496;DHT22;3789;47.064;15.482;2022-12-19T17:21:36;-8.70;99.90
7496;DHT22;3789;47.064;15.482;2022-12-19T17:24:12;-8.70;99.90
7496;DHT22;3789;47.064;15.482;2022-12-19T17:26:59;-8.70;99.90
7496;DHT22;3789;47.064;15.482;2022-12-19T17:29:28;-8.70;99.90
7496;DHT22;3789;47.064;15.482;2022-12-19T17:31:57;-8.70;99.90
7496;DHT22;3789;47.064;15.482;2022-12-19T17:34:31;-8.70;99.90
7496;DHT22;3789;47.064;15.482;2022-12-19T17:37:03;-8.80;99.90
7496;DHT22;3789;47.064;15.482;2022-12-19T17:39:32;-8.80;99.90
7496;DHT22;3789;47.064;15.482;2022-12-19T17:42:11;-8.80;99.90
7496;DHT22;3789;47.064;15.482;2022-12-19T17:44:44;-7.60;99.90
7496;DHT22;3789;47.064;15.482;2022-12-19T17:47:17;-6.20;99.90
7496;DHT22;3789;47.064;15.482;2022-12-19T17:49:47;-6.80;99.90
7496;DHT22;3789;47.064;15.482;2022-12-19T17:52:26;-7.40;99.90
7496;DHT22;3789;47.064;15.482;2022-12-19T17:54:56;-7.80;99.90
7496;DHT22;3789;47.064;15.482;2022-12-19T17:57:35;-8.00;99.90
7496;DHT22;3789;47.064;15.482;2022-12-19T18:00:05;-8.20;99.90
7496;DHT22;3789;47.064;15.482;2022-12-19T18:02:34;-8.30;99.90
7496;DHT22;3789;47.064;15.482;2022-12-19T18:05:03;-8.40;99.90
7496;DHT22;3789;47.064;15.482;2022-12-19T18:07:41;-8.50;99.90
7496;DHT22;3789;47.064;15.482;2022-12-19T18:10:21;-8.60;99.90
7496;DHT22;3789;47.064;15.482;2022-12-19T18:12:53;-8.50;99.90
7496;DHT22;3789;47.064;15.482;2022-12-19T18:15:24;-8.60;99.90
7496;DHT22;3789;47.064;15.482;2022-12-19T18:17:54;-8.60;99.90
7496;DHT22;3789;47.064;15.482;2022-12-19T18:20:31;-8.60;99.90
7496;DHT22;3789;47.064;15.482;2022-12-19T18:23:04;-8.60;99.90
7496;DHT22;3789;47.064;15.482;2022-12-19T18:25:49;-8.70;99.90
7496;DHT22;3789;47.064;15.482;2022-12-19T18:28:29;-8.80;99.90
7496;DHT22;3789;47.064;15.482;2022-12-19T18:31:02;-8.80;99.90